sensor_id;sensor_type;location;lat;lon;timestamp;P1;durP1;ratioP1;P2;durP2;ratioP2
57301;SDS011;43149;50.974;18.224;2023-06-22T00:09:08;13.70;;;11.70;;
57301;SDS011;43149;50.974;18.224;2023-06-22T00:18:53;8.70;;;7.60;;
57301;SDS011;43149;50.974;18.224;2023-06-22T00:28:39;16.40;;;10.30;;
57301;SDS011;43149;50.974;18.224;2023-06-22T00:38:22;9.80;;;8.50;;
57301;SDS011;43149;50.974;18.224;2023-06-22T00:48:05;11.50;;;10.40;;
57301;SDS011;43149;50.974;18.224;2023-06-22T00:58:04;15.00;;;11.90;;
57301;SDS011;43149;50.974;18.224;2023-06-22T01:18:23;18.20;;;14.40;;
57301;SDS011;43149;50.974;18.224;2023-06-22T01:28:45;19.20;;;14.40;;
57301;SDS011;43149;50.974;18.224;2023-06-22T01:38:36;18.50;;;16.60;;
57301;SDS011;43149;50.974;18.224;2023-06-22T01:48:19;18.10;;;13.60;;
57301;SDS011;43149;50.974;18.224;2023-06-22T01:58:02;22.30;;;16.60;;
57301;SDS011;43149;50.974;18.224;2023-06-22T02:17:47;21.80;;;19.50;;
57301;SDS011;43149;50.974;18.224;2023-06-22T02:27:30;34.00;;;19.50;;
57301;SDS011;43149;50.974;18.224;2023-06-22T02:37:13;25.60;;;21.10;;
57301;SDS011;43149;50.974;18.224;2023-06-22T02:47:01;24.60;;;19.70;;
57301;SDS011;43149;50.974;18.224;2023-06-22T02:56:44;30.40;;;24.30;;
57301;SDS011;43149;50.974;18.224;2023-06-22T03:06:34;19.50;;;16.70;;
57301;SDS011;43149;50.974;18.224;2023-06-22T03:16:20;27.30;;;21.40;;
57301;SDS011;43149;50.974;18.224;2023-06-22T03:26:03;60.80;;;25.60;;
57301;SDS011;43149;50.974;18.224;2023-06-22T03:35:48;24.50;;;18.60;;
57301;SDS011;43149;50.974;18.224;2023-06-22T03:45:32;22.50;;;19.20;;
57301;SDS011;43149;50.974;18.224;2023-06-22T03:55:16;22.10;;;16.60;;
57301;SDS011;43149;50.974;18.224;2023-06-22T04:05:01;42.80;;;23.20;;
57301;SDS011;43149;50.974;18.224;2023-06-22T04:14:44;29.10;;;22.10;;
57301;SDS011;43149;50.974;18.224;2023-06-22T04:24:27;18.30;;;15.20;;
57301;SDS011;43149;50.974;18.224;2023-06-22T04:34:16;31.20;;;23.40;;
57301;SDS011;43149;50.974;18.224;2023-06-22T04:54:07;36.60;;;21.40;;
57301;SDS011;43149;50.974;18.224;2023-06-22T05:03:51;24.20;;;19.80;;
57301;SDS011;43149;50.974;18.224;2023-06-22T05:13:52;30.10;;;18.30;;
57301;SDS011;43149;50.974;18.224;2023-06-22T05:23:41;15.90;;;12.30;;
57301;SDS011;43149;50.974;18.224;2023-06-22T05:33:25;11.40;;;9.00;;
57301;SDS011;43149;50.974;18.224;2023-06-22T05:43:08;17.90;;;10.60;;
57301;SDS011;43149;50.974;18.224;2023-06-22T05:52:52;26.60;;;9.50;;
57301;SDS011;43149;50.974;18.224;2023-06-22T06:09:55;11.60;;;8.20;;
57301;SDS011;43149;50.974;18.224;2023-06-22T06:19:38;10.10;;;9.10;;
57301;SDS011;43149;50.974;18.224;2023-06-22T06:29:21;6.30;;;5.70;;
57301;SDS011;43149;50.974;18.224;2023-06-22T06:39:05;4.50;;;4.10;;
57301;SDS011;43149;50.974;18.224;2023-06-22T06:48:48;9.10;;;6.80;;
57301;SDS011;43149;50.974;18.224;2023-06-22T06:58:31;13.40;;;7.20;;
57301;SDS011;43149;50.974;18.224;2023-06-22T07:08:14;16.90;;;7.80;;
57301;SDS011;43149;50.974;18.224;2023-06-22T07:17:56;8.30;;;7.40;;
57301;SDS011;43149;50.974;18.224;2023-06-22T07:37:44;8.50;;;6.70;;
57301;SDS011;43149;50.974;18.224;2023-06-22T07:47:29;6.50;;;5.90;;
57301;SDS011;43149;50.974;18.224;2023-06-22T07:57:15;8.30;;;7.40;;
57301;SDS011;43149;50.974;18.224;2023-06-22T08:07:00;9.10;;;7.10;;
57301;SDS011;43149;50.974;18.224;2023-06-22T08:16:48;8.90;;;8.00;;
57301;SDS011;43149;50.974;18.224;2023-06-22T08:26:32;11.00;;;9.20;;
57301;SDS011;43149;50.974;18.224;2023-06-22T08:36:18;7.20;;;6.60;;
57301;SDS011;43149;50.974;18.224;2023-06-22T08:46:01;9.40;;;6.50;;
57301;SDS011;43149;50.974;18.224;2023-06-22T08:55:44;7.10;;;6.60;;
57301;SDS011;43149;50.974;18.224;2023-06-22T09:05:29;7.70;;;7.10;;
57301;SDS011;43149;50.974;18.224;2023-06-22T09:15:13;7.50;;;5.40;;
57301;SDS011;43149;50.974;18.224;2023-06-22T09:24:59;6.50;;;5.90;;
57301;SDS011;43149;50.974;18.224;2023-06-22T09:34:42;6.90;;;5.60;;
57301;SDS011;43149;50.974;18.224;2023-06-22T09:44:25;6.00;;;5.50;;
57301;SDS011;43149;50.974;18.224;2023-06-22T09:54:08;6.90;;;6.30;;
57301;SDS011;43149;50.974;18.224;2023-06-22T10:03:52;5.70;;;4.70;;
57301;SDS011;43149;50.974;18.224;2023-06-22T10:13:39;6.60;;;4.60;;
57301;SDS011;43149;50.974;18.224;2023-06-22T10:23:22;4.20;;;3.60;;
57301;SDS011;43149;50.974;18.224;2023-06-22T10:33:09;5.30;;;4.90;;
57301;SDS011;43149;50.974;18.224;2023-06-22T10:42:54;2.10;;;1.20;;
57301;SDS011;43149;50.974;18.224;2023-06-22T10:52:37;8.90;;;5.40;;
57301;SDS011;43149;50.974;18.224;2023-06-22T11:02:20;3.80;;;3.60;;
57301;SDS011;43149;50.974;18.224;2023-06-22T11:12:05;7.50;;;4.30;;
57301;SDS011;43149;50.974;18.224;2023-06-22T11:21:50;6.10;;;4.40;;
57301;SDS011;43149;50.974;18.224;2023-06-22T11:31:34;11.10;;;4.10;;
57301;SDS011;43149;50.974;18.224;2023-06-22T11:38:52;7.50;;;5.50;;
57301;SDS011;43149;50.974;18.224;2023-06-22T11:48:35;5.60;;;3.20;;
57301;SDS011;43149;50.974;18.224;2023-06-22T11:58:20;2.60;;;2.40;;
57301;SDS011;43149;50.974;18.224;2023-06-22T12:08:06;6.20;;;4.00;;
57301;SDS011;43149;50.974;18.224;2023-06-22T12:17:51;4.00;;;3.70;;
57301;SDS011;43149;50.974;18.224;2023-06-22T12:27:34;6.40;;;3.30;;
57301;SDS011;43149;50.974;18.224;2023-06-22T12:37:18;21.80;;;4.00;;
57301;SDS011;43149;50.974;18.224;2023-06-22T12:47:03;7.30;;;3.20;;
57301;SDS011;43149;50.974;18.224;2023-06-22T12:56:46;4.00;;;2.90;;
57301;SDS011;43149;50.974;18.224;2023-06-22T13:06:29;4.20;;;3.90;;
57301;SDS011;43149;50.974;18.224;2023-06-22T13:16:12;2.10;;;2.00;;
57301;SDS011;43149;50.974;18.224;2023-06-22T13:25:55;3.60;;;3.30;;
57301;SDS011;43149;50.974;18.224;2023-06-22T13:35:39;6.10;;;4.00;;
57301;SDS011;43149;50.974;18.224;2023-06-22T13:45:22;4.30;;;3.90;;
57301;SDS011;43149;50.974;18.224;2023-06-22T13:55:06;8.80;;;3.60;;
57301;SDS011;43149;50.974;18.224;2023-06-22T14:04:54;2.70;;;2.30;;
57301;SDS011;43149;50.974;18.224;2023-06-22T14:14:38;5.50;;;4.00;;
57301;SDS011;43149;50.974;18.224;2023-06-22T14:24:22;5.80;;;4.50;;
57301;SDS011;43149;50.974;18.224;2023-06-22T14:34:05;4.50;;;4.30;;
57301;SDS011;43149;50.974;18.224;2023-06-22T14:43:50;2.60;;;2.50;;
57301;SDS011;43149;50.974;18.224;2023-06-22T14:53:35;3.50;;;3.20;;
57301;SDS011;43149;50.974;18.224;2023-06-22T15:03:19;9.40;;;3.20;;
57301;SDS011;43149;50.974;18.224;2023-06-22T15:13:07;6.40;;;3.90;;
57301;SDS011;43149;50.974;18.224;2023-06-22T15:22:50;22.40;;;3.80;;
57301;SDS011;43149;50.974;18.224;2023-06-22T15:32:33;3.90;;;3.60;;
57301;SDS011;43149;50.974;18.224;2023-06-22T15:42:16;4.00;;;3.50;;
57301;SDS011;43149;50.974;18.224;2023-06-22T15:51:59;3.20;;;2.90;;
57301;SDS011;43149;50.974;18.224;2023-06-22T16:01:43;2.30;;;2.20;;
57301;SDS011;43149;50.974;18.224;2023-06-22T16:11:28;13.60;;;2.30;;
57301;SDS011;43149;50.974;18.224;2023-06-22T16:21:12;2.70;;;2.60;;
57301;SDS011;43149;50.974;18.224;2023-06-22T16:30:55;4.10;;;3.80;;
57301;SDS011;43149;50.974;18.224;2023-06-22T16:40:38;5.80;;;2.90;;
57301;SDS011;43149;50.974;18.224;2023-06-22T16:50:23;14.70;;;4.50;;
57301;SDS011;43149;50.974;18.224;2023-06-22T17:00:06;3.30;;;3.00;;
57301;SDS011;43149;50.974;18.224;2023-06-22T17:10:17;5.10;;;3.90;;
57301;SDS011;43149;50.974;18.224;2023-06-22T17:20:06;6.90;;;2.50;;
57301;SDS011;43149;50.974;18.224;2023-06-22T17:30:04;1.00;;;1.00;;
57301;SDS011;43149;50.974;18.224;2023-06-22T17:47:25;2.00;;;1.90;;
57301;SDS011;43149;50.974;18.224;2023-06-22T17:57:18;2.10;;;2.00;;
57301;SDS011;43149;50.974;18.224;2023-06-22T18:07:10;5.10;;;2.80;;
57301;SDS011;43149;50.974;18.224;2023-06-22T18:16:54;2.30;;;2.20;;
57301;SDS011;43149;50.974;18.224;2023-06-22T18:26:40;3.70;;;3.40;;
57301;SDS011;43149;50.974;18.224;2023-06-22T18:36:34;2.20;;;1.80;;
57301;SDS011;43149;50.974;18.224;2023-06-22T18:46:29;6.10;;;2.80;;
57301;SDS011;43149;50.974;18.224;2023-06-22T18:56:30;9.30;;;3.30;;
57301;SDS011;43149;50.974;18.224;2023-06-22T19:16:43;8.00;;;2.50;;
57301;SDS011;43149;50.974;18.224;2023-06-22T19:26:30;3.00;;;2.70;;
57301;SDS011;43149;50.974;18.224;2023-06-22T19:36:19;7.00;;;3.20;;
57301;SDS011;43149;50.974;18.224;2023-06-22T19:46:04;3.90;;;3.20;;
57301;SDS011;43149;50.974;18.224;2023-06-22T19:55:57;17.70;;;2.70;;
57301;SDS011;43149;50.974;18.224;2023-06-22T20:06:12;7.80;;;3.70;;
57301;SDS011;43149;50.974;18.224;2023-06-22T20:16:13;6.40;;;4.50;;
57301;SDS011;43149;50.974;18.224;2023-06-22T20:33:30;6.00;;;3.80;;
57301;SDS011;43149;50.974;18.224;2023-06-22T20:43:14;0.70;;;0.70;;
57301;SDS011;43149;50.974;18.224;2023-06-22T20:53:00;3.80;;;3.30;;
57301;SDS011;43149;50.974;18.224;2023-06-22T21:02:47;3.10;;;2.90;;
57301;SDS011;43149;50.974;18.224;2023-06-22T21:12:31;2.30;;;2.20;;
57301;SDS011;43149;50.974;18.224;2023-06-22T21:22:18;13.10;;;2.50;;
57301;SDS011;43149;50.974;18.224;2023-06-22T21:32:02;3.60;;;3.10;;
57301;SDS011;43149;50.974;18.224;2023-06-22T21:41:45;6.30;;;5.00;;
57301;SDS011;43149;50.974;18.224;2023-06-22T21:51:27;5.00;;;3.60;;
57301;SDS011;43149;50.974;18.224;2023-06-22T22:01:11;8.00;;;4.50;;
57301;SDS011;43149;50.974;18.224;2023-06-22T22:10:55;8.70;;;3.50;;
57301;SDS011;43149;50.974;18.224;2023-06-22T22:20:42;5.20;;;4.70;;
57301;SDS011;43149;50.974;18.224;2023-06-22T22:30:24;3.10;;;2.70;;
57301;SDS011;43149;50.974;18.224;2023-06-22T22:40:07;8.10;;;3.90;;
57301;SDS011;43149;50.974;18.224;2023-06-22T22:49:55;3.60;;;3.30;;
57301;SDS011;43149;50.974;18.224;2023-06-22T22:59:38;6.70;;;3.90;;
57301;SDS011;43149;50.974;18.224;2023-06-22T23:09:22;8.70;;;4.70;;
57301;SDS011;43149;50.974;18.224;2023-06-22T23:19:06;3.90;;;3.50;;
57301;SDS011;43149;50.974;18.224;2023-06-22T23:28:53;5.90;;;3.20;;
57301;SDS011;43149;50.974;18.224;2023-06-22T23:38:36;8.10;;;4.70;;
57301;SDS011;43149;50.974;18.224;2023-06-22T23:48:28;15.40;;;6.30;;
57301;SDS011;43149;50.974;18.224;2023-06-22T23:58:11;4.70;;;4.10;;
